sensor_id;sensor_type;location;lat;lon;timestamp;temperature;humidity
7844;DHT22;3967;48.702;9.326;2022-11-11T00:01:03;8.00;99.90
7844;DHT22;3967;48.702;9.326;2022-11-11T00:03:30;7.90;99.90
7844;DHT22;3967;48.702;9.326;2022-11-11T00:06:08;7.90;99.90
7844;DHT22;3967;48.702;9.326;2022-11-11T00:08:35;8.00;99.90
7844;DHT22;3967;48.702;9.326;2022-11-11T00:11:04;7.90;99.90
7844;DHT22;3967;48.702;9.326;2022-11-11T00:13:32;7.90;99.90
7844;DHT22;3967;48.702;9.326;2022-11-11T00:16:14;7.90;99.90
7844;DHT22;3967;48.702;9.326;2022-11-11T00:18:41;7.90;99.90
7844;DHT22;3967;48.702;9.326;2022-11-11T00:21:27;7.80;99.90
7844;DHT22;3967;48.702;9.326;2022-11-11T00:27:09;7.60;99.90
7844;DHT22;3967;48.702;9.326;2022-11-11T00:29:37;7.60;99.90
7844;DHT22;3967;48.702;9.326;2022-11-11T00:32:05;7.60;99.90
7844;DHT22;3967;48.702;9.326;2022-11-11T00:34:52;7.50;99.90
7844;DHT22;3967;48.702;9.326;2022-11-11T00:37:39;7.60;99.90
7844;DHT22;3967;48.702;9.326;2022-11-11T00:40:07;7.50;99.90
7844;DHT22;3967;48.702;9.326;2022-11-11T00:42:34;7.50;99.90
7844;DHT22;3967;48.702;9.326;2022-11-11T00:45:01;7.50;99.90
7844;DHT22;3967;48.702;9.326;2022-11-11T00:47:28;7.40;99.90
7844;DHT22;3967;48.702;9.326;2022-11-11T00:50:16;7.20;99.90
7844;DHT22;3967;48.702;9.326;2022-11-11T00:53:05;7.20;99.90
7844;DHT22;3967;48.702;9.326;2022-11-11T00:55:33;7.30;99.90
7844;DHT22;3967;48.702;9.326;2022-11-11T00:58:00;7.30;99.90
7844;DHT22;3967;48.702;9.326;2022-11-11T01:00:26;7.30;99.90
7844;DHT22;3967;48.702;9.326;2022-11-11T01:02:53;7.40;99.90
7844;DHT22;3967;48.702;9.326;2022-11-11T01:05:20;7.30;99.90
7844;DHT22;3967;48.702;9.326;2022-11-11T01:07:48;7.30;99.90
7844;DHT22;3967;48.702;9.326;2022-11-11T01:10:17;7.30;99.90
7844;DHT22;3967;48.702;9.326;2022-11-11T01:13:05;7.20;99.90
7844;DHT22;3967;48.702;9.326;2022-11-11T01:15:39;7.10;99.90
7844;DHT22;3967;48.702;9.326;2022-11-11T01:18:07;7.00;99.90
7844;DHT22;3967;48.702;9.326;2022-11-11T01:20:35;6.90;99.90
7844;DHT22;3967;48.702;9.326;2022-11-11T01:23:04;6.90;99.90
7844;DHT22;3967;48.702;9.326;2022-11-11T01:25:35;6.80;99.90
7844;DHT22;3967;48.702;9.326;2022-11-11T01:28:03;6.80;99.90
7844;DHT22;3967;48.702;9.326;2022-11-11T01:30:31;6.70;99.90
7844;DHT22;3967;48.702;9.326;2022-11-11T01:32:59;6.60;99.90
7844;DHT22;3967;48.702;9.326;2022-11-11T01:35:26;6.60;99.90
7844;DHT22;3967;48.702;9.326;2022-11-11T01:37:53;6.60;99.90
7844;DHT22;3967;48.702;9.326;2022-11-11T01:40:23;6.50;99.90
7844;DHT22;3967;48.702;9.326;2022-11-11T01:42:51;6.50;99.90
7844;DHT22;3967;48.702;9.326;2022-11-11T01:48:33;6.50;99.90
7844;DHT22;3967;48.702;9.326;2022-11-11T01:51:50;6.50;99.90
7844;DHT22;3967;48.702;9.326;2022-11-11T01:54:35;6.50;99.90
7844;DHT22;3967;48.702;9.326;2022-11-11T02:00:09;6.40;99.90
7844;DHT22;3967;48.702;9.326;2022-11-11T02:02:54;6.40;99.90
7844;DHT22;3967;48.702;9.326;2022-11-11T02:05:22;6.30;99.90
7844;DHT22;3967;48.702;9.326;2022-11-11T02:08:11;6.30;99.90
7844;DHT22;3967;48.702;9.326;2022-11-11T02:10:41;6.20;99.90
7844;DHT22;3967;48.702;9.326;2022-11-11T02:13:14;6.20;99.90
7844;DHT22;3967;48.702;9.326;2022-11-11T02:16:00;6.30;99.90
7844;DHT22;3967;48.702;9.326;2022-11-11T02:18:27;6.20;99.90
7844;DHT22;3967;48.702;9.326;2022-11-11T02:20:54;6.10;99.90
7844;DHT22;3967;48.702;9.326;2022-11-11T02:23:26;6.10;99.90
7844;DHT22;3967;48.702;9.326;2022-11-11T02:25:55;6.10;99.90
7844;DHT22;3967;48.702;9.326;2022-11-11T02:28:24;6.10;99.90
7844;DHT22;3967;48.702;9.326;2022-11-11T02:30:53;6.10;99.90
7844;DHT22;3967;48.702;9.326;2022-11-11T02:33:19;6.10;99.90
7844;DHT22;3967;48.702;9.326;2022-11-11T02:35:51;6.10;99.90
7844;DHT22;3967;48.702;9.326;2022-11-11T02:38:24;6.10;99.90
7844;DHT22;3967;48.702;9.326;2022-11-11T02:40:51;6.00;99.90
7844;DHT22;3967;48.702;9.326;2022-11-11T02:43:37;6.10;99.90
7844;DHT22;3967;48.702;9.326;2022-11-11T02:46:05;6.00;99.90
7844;DHT22;3967;48.702;9.326;2022-11-11T02:48:32;5.90;99.90
7844;DHT22;3967;48.702;9.326;2022-11-11T02:50:59;5.80;99.90
7844;DHT22;3967;48.702;9.326;2022-11-11T02:53:26;5.80;99.90
7844;DHT22;3967;48.702;9.326;2022-11-11T02:55:53;5.90;99.90
7844;DHT22;3967;48.702;9.326;2022-11-11T02:58:20;5.80;99.90
7844;DHT22;3967;48.702;9.326;2022-11-11T03:00:47;5.80;99.90
7844;DHT22;3967;48.702;9.326;2022-11-11T03:03:13;5.80;99.90
7844;DHT22;3967;48.702;9.326;2022-11-11T03:05:41;5.70;99.90
7844;DHT22;3967;48.702;9.326;2022-11-11T03:08:07;5.70;99.90
7844;DHT22;3967;48.702;9.326;2022-11-11T03:10:34;5.50;99.90
7844;DHT22;3967;48.702;9.326;2022-11-11T03:13:01;5.40;99.90
7844;DHT22;3967;48.702;9.326;2022-11-11T03:15:28;5.40;99.90
7844;DHT22;3967;48.702;9.326;2022-11-11T03:17:54;5.40;99.90
7844;DHT22;3967;48.702;9.326;2022-11-11T03:20:22;5.50;99.90
7844;DHT22;3967;48.702;9.326;2022-11-11T03:23:18;5.50;99.90
7844;DHT22;3967;48.702;9.326;2022-11-11T03:25:46;5.40;99.90
7844;DHT22;3967;48.702;9.326;2022-11-11T03:28:18;5.10;99.90
7844;DHT22;3967;48.702;9.326;2022-11-11T03:30:46;4.90;99.90
7844;DHT22;3967;48.702;9.326;2022-11-11T03:33:14;4.80;99.90
7844;DHT22;3967;48.702;9.326;2022-11-11T03:35:41;4.90;99.90
7844;DHT22;3967;48.702;9.326;2022-11-11T03:38:10;4.80;99.90
7844;DHT22;3967;48.702;9.326;2022-11-11T03:41:03;4.80;99.90
7844;DHT22;3967;48.702;9.326;2022-11-11T03:43:32;4.90;99.90
7844;DHT22;3967;48.702;9.326;2022-11-11T03:46:01;5.10;99.90
7844;DHT22;3967;48.702;9.326;2022-11-11T03:48:31;5.30;99.90
7844;DHT22;3967;48.702;9.326;2022-11-11T03:50:58;5.30;99.90
7844;DHT22;3967;48.702;9.326;2022-11-11T03:53:25;5.20;99.90
7844;DHT22;3967;48.702;9.326;2022-11-11T03:55:52;5.20;99.90
7844;DHT22;3967;48.702;9.326;2022-11-11T03:58:19;5.20;99.90
7844;DHT22;3967;48.702;9.326;2022-11-11T04:00:45;5.10;99.90
7844;DHT22;3967;48.702;9.326;2022-11-11T04:03:13;5.00;99.90
7844;DHT22;3967;48.702;9.326;2022-11-11T04:05:59;5.10;99.90
7844;DHT22;3967;48.702;9.326;2022-11-11T04:08:29;5.20;99.90
7844;DHT22;3967;48.702;9.326;2022-11-11T04:11:28;5.20;99.90
7844;DHT22;3967;48.702;9.326;2022-11-11T04:13:58;5.20;99.90
7844;DHT22;3967;48.702;9.326;2022-11-11T04:16:44;5.20;99.90
7844;DHT22;3967;48.702;9.326;2022-11-11T04:19:11;5.30;99.90
7844;DHT22;3967;48.702;9.326;2022-11-11T04:21:56;5.30;99.90
7844;DHT22;3967;48.702;9.326;2022-11-11T04:24:23;5.40;99.90
7844;DHT22;3967;48.702;9.326;2022-11-11T04:27:11;5.50;99.90
7844;DHT22;3967;48.702;9.326;2022-11-11T04:29:38;5.60;99.90
7844;DHT22;3967;48.702;9.326;2022-11-11T04:32:19;5.60;99.90
7844;DHT22;3967;48.702;9.326;2022-11-11T04:35:04;5.50;99.90
7844;DHT22;3967;48.702;9.326;2022-11-11T04:37:35;5.40;99.90
7844;DHT22;3967;48.702;9.326;2022-11-11T04:40:02;5.30;99.90
7844;DHT22;3967;48.702;9.326;2022-11-11T04:42:47;5.20;99.90
7844;DHT22;3967;48.702;9.326;2022-11-11T04:45:14;5.20;99.90
7844;DHT22;3967;48.702;9.326;2022-11-11T04:48:07;5.00;99.90
7844;DHT22;3967;48.702;9.326;2022-11-11T04:50:42;4.70;99.90
7844;DHT22;3967;48.702;9.326;2022-11-11T04:53:13;4.70;99.90
7844;DHT22;3967;48.702;9.326;2022-11-11T04:55:41;4.70;99.90
7844;DHT22;3967;48.702;9.326;2022-11-11T04:58:32;4.80;99.90
7844;DHT22;3967;48.702;9.326;2022-11-11T05:00:59;4.70;99.90
7844;DHT22;3967;48.702;9.326;2022-11-11T05:03:26;4.70;99.90
7844;DHT22;3967;48.702;9.326;2022-11-11T05:05:55;4.90;99.90
7844;DHT22;3967;48.702;9.326;2022-11-11T05:08:45;5.10;99.90
7844;DHT22;3967;48.702;9.326;2022-11-11T05:11:30;5.20;99.90
7844;DHT22;3967;48.702;9.326;2022-11-11T05:13:59;5.00;99.90
7844;DHT22;3967;48.702;9.326;2022-11-11T05:16:47;4.80;99.90
7844;DHT22;3967;48.702;9.326;2022-11-11T05:19:33;4.90;99.90
7844;DHT22;3967;48.702;9.326;2022-11-11T05:22:42;5.10;99.90
7844;DHT22;3967;48.702;9.326;2022-11-11T05:25:08;4.90;99.90
7844;DHT22;3967;48.702;9.326;2022-11-11T05:27:51;5.10;99.90
7844;DHT22;3967;48.702;9.326;2022-11-11T05:30:19;5.10;99.90
7844;DHT22;3967;48.702;9.326;2022-11-11T05:32:47;5.00;99.90
7844;DHT22;3967;48.702;9.326;2022-11-11T05:35:14;5.10;99.90
7844;DHT22;3967;48.702;9.326;2022-11-11T05:37:42;5.20;99.90
7844;DHT22;3967;48.702;9.326;2022-11-11T05:40:10;5.20;99.90
7844;DHT22;3967;48.702;9.326;2022-11-11T05:42:40;5.30;99.90
7844;DHT22;3967;48.702;9.326;2022-11-11T05:45:15;5.20;99.90
7844;DHT22;3967;48.702;9.326;2022-11-11T05:47:41;5.10;99.90
7844;DHT22;3967;48.702;9.326;2022-11-11T05:50:08;5.10;99.90
7844;DHT22;3967;48.702;9.326;2022-11-11T05:52:35;5.10;99.90
7844;DHT22;3967;48.702;9.326;2022-11-11T05:55:01;5.10;99.90
7844;DHT22;3967;48.702;9.326;2022-11-11T05:57:28;5.10;99.90
7844;DHT22;3967;48.702;9.326;2022-11-11T05:59:55;5.00;99.90
7844;DHT22;3967;48.702;9.326;2022-11-11T06:02:24;5.00;99.90
7844;DHT22;3967;48.702;9.326;2022-11-11T06:04:51;5.00;99.90
7844;DHT22;3967;48.702;9.326;2022-11-11T06:07:18;4.90;99.90
7844;DHT22;3967;48.702;9.326;2022-11-11T06:09:45;5.00;99.90
7844;DHT22;3967;48.702;9.326;2022-11-11T06:12:12;4.80;99.90
7844;DHT22;3967;48.702;9.326;2022-11-11T06:14:38;4.70;99.90
7844;DHT22;3967;48.702;9.326;2022-11-11T06:17:05;4.60;99.90
7844;DHT22;3967;48.702;9.326;2022-11-11T06:19:32;4.60;99.90
7844;DHT22;3967;48.702;9.326;2022-11-11T06:21:58;4.60;99.90
7844;DHT22;3967;48.702;9.326;2022-11-11T06:24:27;4.60;99.90
7844;DHT22;3967;48.702;9.326;2022-11-11T06:26:54;4.50;99.90
7844;DHT22;3967;48.702;9.326;2022-11-11T06:29:21;4.70;99.90
7844;DHT22;3967;48.702;9.326;2022-11-11T06:31:48;4.40;99.90
7844;DHT22;3967;48.702;9.326;2022-11-11T06:34:15;4.50;99.90
7844;DHT22;3967;48.702;9.326;2022-11-11T06:36:42;4.50;99.90
7844;DHT22;3967;48.702;9.326;2022-11-11T06:39:08;4.50;99.90
7844;DHT22;3967;48.702;9.326;2022-11-11T06:41:35;4.60;99.90
7844;DHT22;3967;48.702;9.326;2022-11-11T06:44:02;4.70;99.90
7844;DHT22;3967;48.702;9.326;2022-11-11T06:46:29;4.60;99.90
7844;DHT22;3967;48.702;9.326;2022-11-11T06:48:55;4.60;99.90
7844;DHT22;3967;48.702;9.326;2022-11-11T06:51:22;4.40;99.90
7844;DHT22;3967;48.702;9.326;2022-11-11T06:53:49;4.30;99.90
7844;DHT22;3967;48.702;9.326;2022-11-11T06:56:16;4.30;99.90
7844;DHT22;3967;48.702;9.326;2022-11-11T06:58:43;4.30;99.90
7844;DHT22;3967;48.702;9.326;2022-11-11T07:01:12;4.30;99.90
7844;DHT22;3967;48.702;9.326;2022-11-11T07:03:39;4.30;99.90
7844;DHT22;3967;48.702;9.326;2022-11-11T07:06:05;4.60;99.90
7844;DHT22;3967;48.702;9.326;2022-11-11T07:08:32;4.50;99.90
7844;DHT22;3967;48.702;9.326;2022-11-11T07:10:59;4.40;99.90
7844;DHT22;3967;48.702;9.326;2022-11-11T07:13:36;4.40;99.90
7844;DHT22;3967;48.702;9.326;2022-11-11T07:16:03;4.30;99.90
7844;DHT22;3967;48.702;9.326;2022-11-11T07:18:30;4.30;99.90
7844;DHT22;3967;48.702;9.326;2022-11-11T07:20:57;4.30;99.90
7844;DHT22;3967;48.702;9.326;2022-11-11T07:23:23;4.20;99.90
7844;DHT22;3967;48.702;9.326;2022-11-11T07:25:50;4.30;99.90
7844;DHT22;3967;48.702;9.326;2022-11-11T07:28:17;4.30;99.90
7844;DHT22;3967;48.702;9.326;2022-11-11T07:30:43;4.40;99.90
7844;DHT22;3967;48.702;9.326;2022-11-11T07:33:10;4.50;99.90
7844;DHT22;3967;48.702;9.326;2022-11-11T07:35:37;4.60;99.90
7844;DHT22;3967;48.702;9.326;2022-11-11T07:38:03;4.70;99.90
7844;DHT22;3967;48.702;9.326;2022-11-11T07:40:30;4.60;99.90
7844;DHT22;3967;48.702;9.326;2022-11-11T07:42:57;4.30;99.90
7844;DHT22;3967;48.702;9.326;2022-11-11T07:45:23;4.30;99.90
7844;DHT22;3967;48.702;9.326;2022-11-11T07:47:50;4.40;99.90
7844;DHT22;3967;48.702;9.326;2022-11-11T07:50:17;4.20;99.90
7844;DHT22;3967;48.702;9.326;2022-11-11T07:52:47;4.30;99.90
7844;DHT22;3967;48.702;9.326;2022-11-11T07:55:14;4.20;99.90
7844;DHT22;3967;48.702;9.326;2022-11-11T07:57:41;4.30;99.90
7844;DHT22;3967;48.702;9.326;2022-11-11T08:00:08;4.30;99.90
7844;DHT22;3967;48.702;9.326;2022-11-11T08:02:35;4.50;99.90
7844;DHT22;3967;48.702;9.326;2022-11-11T08:05:02;4.60;99.90
7844;DHT22;3967;48.702;9.326;2022-11-11T08:07:28;4.40;99.90
7844;DHT22;3967;48.702;9.326;2022-11-11T08:09:55;4.40;99.90
7844;DHT22;3967;48.702;9.326;2022-11-11T08:12:22;4.40;99.90
7844;DHT22;3967;48.702;9.326;2022-11-11T08:15:07;4.50;99.90
7844;DHT22;3967;48.702;9.326;2022-11-11T08:17:37;4.60;99.90
7844;DHT22;3967;48.702;9.326;2022-11-11T08:20:08;4.60;99.90
7844;DHT22;3967;48.702;9.326;2022-11-11T08:22:39;4.70;99.90
7844;DHT22;3967;48.702;9.326;2022-11-11T08:25:08;4.60;99.90
7844;DHT22;3967;48.702;9.326;2022-11-11T08:27:36;4.80;99.90
7844;DHT22;3967;48.702;9.326;2022-11-11T08:30:04;4.60;99.90
7844;DHT22;3967;48.702;9.326;2022-11-11T08:32:32;4.70;99.90
7844;DHT22;3967;48.702;9.326;2022-11-11T08:34:58;4.80;99.90
7844;DHT22;3967;48.702;9.326;2022-11-11T08:37:26;4.90;99.90
7844;DHT22;3967;48.702;9.326;2022-11-11T08:39:53;5.10;99.90
7844;DHT22;3967;48.702;9.326;2022-11-11T08:42:20;5.00;99.90
7844;DHT22;3967;48.702;9.326;2022-11-11T08:44:46;5.00;99.90
7844;DHT22;3967;48.702;9.326;2022-11-11T08:47:13;5.20;99.90
7844;DHT22;3967;48.702;9.326;2022-11-11T08:49:40;5.10;99.90
7844;DHT22;3967;48.702;9.326;2022-11-11T08:52:07;5.30;99.90
7844;DHT22;3967;48.702;9.326;2022-11-11T08:54:33;5.40;99.90
7844;DHT22;3967;48.702;9.326;2022-11-11T08:57:00;5.20;99.90
7844;DHT22;3967;48.702;9.326;2022-11-11T08:59:27;5.40;99.90
7844;DHT22;3967;48.702;9.326;2022-11-11T09:01:53;5.50;99.90
7844;DHT22;3967;48.702;9.326;2022-11-11T09:04:20;5.60;99.90
7844;DHT22;3967;48.702;9.326;2022-11-11T09:07:08;5.80;99.90
7844;DHT22;3967;48.702;9.326;2022-11-11T09:09:35;5.80;99.90
7844;DHT22;3967;48.702;9.326;2022-11-11T09:12:02;5.90;99.90
7844;DHT22;3967;48.702;9.326;2022-11-11T09:14:29;5.90;99.90
7844;DHT22;3967;48.702;9.326;2022-11-11T09:16:56;6.00;99.90
7844;DHT22;3967;48.702;9.326;2022-11-11T09:19:22;6.10;99.90
7844;DHT22;3967;48.702;9.326;2022-11-11T09:21:50;6.10;99.90
7844;DHT22;3967;48.702;9.326;2022-11-11T09:24:18;6.30;99.90
7844;DHT22;3967;48.702;9.326;2022-11-11T09:26:48;6.40;99.90
7844;DHT22;3967;48.702;9.326;2022-11-11T09:29:16;6.40;99.90
7844;DHT22;3967;48.702;9.326;2022-11-11T09:31:43;6.60;99.90
7844;DHT22;3967;48.702;9.326;2022-11-11T09:34:12;6.80;99.90
7844;DHT22;3967;48.702;9.326;2022-11-11T09:36:40;6.90;99.90
7844;DHT22;3967;48.702;9.326;2022-11-11T09:39:07;6.90;99.90
7844;DHT22;3967;48.702;9.326;2022-11-11T09:42:02;7.00;99.90
7844;DHT22;3967;48.702;9.326;2022-11-11T09:47:30;7.30;99.90
7844;DHT22;3967;48.702;9.326;2022-11-11T09:50:04;7.30;99.90
7844;DHT22;3967;48.702;9.326;2022-11-11T09:53:10;7.40;99.90
7844;DHT22;3967;48.702;9.326;2022-11-11T09:55:44;7.40;99.90
7844;DHT22;3967;48.702;9.326;2022-11-11T10:01:40;7.60;99.90
7844;DHT22;3967;48.702;9.326;2022-11-11T10:07:11;7.70;99.90
7844;DHT22;3967;48.702;9.326;2022-11-11T10:09:57;7.80;99.90
7844;DHT22;3967;48.702;9.326;2022-11-11T10:12:38;7.90;99.90
7844;DHT22;3967;48.702;9.326;2022-11-11T10:15:12;8.00;99.90
7844;DHT22;3967;48.702;9.326;2022-11-11T10:17:52;8.00;99.90
7844;DHT22;3967;48.702;9.326;2022-11-11T10:20:26;8.10;99.90
7844;DHT22;3967;48.702;9.326;2022-11-11T10:23:04;8.10;99.90
7844;DHT22;3967;48.702;9.326;2022-11-11T10:25:34;8.10;99.90
7844;DHT22;3967;48.702;9.326;2022-11-11T10:28:01;8.20;99.90
7844;DHT22;3967;48.702;9.326;2022-11-11T10:30:31;8.30;99.90
7844;DHT22;3967;48.702;9.326;2022-11-11T10:33:18;8.40;99.90
7844;DHT22;3967;48.702;9.326;2022-11-11T10:35:49;8.40;99.90
7844;DHT22;3967;48.702;9.326;2022-11-11T10:39:02;8.50;99.90
7844;DHT22;3967;48.702;9.326;2022-11-11T10:41:39;8.70;99.90
7844;DHT22;3967;48.702;9.326;2022-11-11T10:44:22;8.80;99.90
7844;DHT22;3967;48.702;9.326;2022-11-11T10:49:28;9.00;99.90
7844;DHT22;3967;48.702;9.326;2022-11-11T10:52:00;9.20;99.90
7844;DHT22;3967;48.702;9.326;2022-11-11T10:54:38;9.30;99.90
7844;DHT22;3967;48.702;9.326;2022-11-11T10:59:52;9.40;99.90
7844;DHT22;3967;48.702;9.326;2022-11-11T11:02:58;9.50;99.90
7844;DHT22;3967;48.702;9.326;2022-11-11T11:05:39;9.40;99.90
7844;DHT22;3967;48.702;9.326;2022-11-11T11:08:16;9.50;99.90
7844;DHT22;3967;48.702;9.326;2022-11-11T11:10:52;9.60;99.90
7844;DHT22;3967;48.702;9.326;2022-11-11T11:13:33;9.70;99.90
7844;DHT22;3967;48.702;9.326;2022-11-11T11:16:23;9.80;99.90
7844;DHT22;3967;48.702;9.326;2022-11-11T11:19:16;9.80;99.90
7844;DHT22;3967;48.702;9.326;2022-11-11T11:21:56;9.90;99.90
7844;DHT22;3967;48.702;9.326;2022-11-11T11:24:25;9.90;99.90
7844;DHT22;3967;48.702;9.326;2022-11-11T11:26:55;10.00;99.90
7844;DHT22;3967;48.702;9.326;2022-11-11T11:29:38;10.00;99.90
7844;DHT22;3967;48.702;9.326;2022-11-11T11:32:17;10.00;99.90
7844;DHT22;3967;48.702;9.326;2022-11-11T11:34:50;10.00;99.90
7844;DHT22;3967;48.702;9.326;2022-11-11T11:37:19;10.10;99.90
7844;DHT22;3967;48.702;9.326;2022-11-11T11:39:46;10.10;99.90
7844;DHT22;3967;48.702;9.326;2022-11-11T11:42:33;10.10;99.90
7844;DHT22;3967;48.702;9.326;2022-11-11T11:45:32;10.20;99.90
7844;DHT22;3967;48.702;9.326;2022-11-11T11:48:22;10.20;99.90
7844;DHT22;3967;48.702;9.326;2022-11-11T11:56:43;10.30;99.90
7844;DHT22;3967;48.702;9.326;2022-11-11T11:59:49;10.40;99.90
7844;DHT22;3967;48.702;9.326;2022-11-11T12:15:50;10.90;99.90
7844;DHT22;3967;48.702;9.326;2022-11-11T12:21:25;11.10;99.90
7844;DHT22;3967;48.702;9.326;2022-11-11T12:26:48;11.20;99.90
7844;DHT22;3967;48.702;9.326;2022-11-11T12:45:21;11.40;99.90
7844;DHT22;3967;48.702;9.326;2022-11-11T12:50:53;11.70;99.90
7844;DHT22;3967;48.702;9.326;2022-11-11T12:56:36;11.80;99.90
7844;DHT22;3967;48.702;9.326;2022-11-11T13:01:56;12.10;99.90
7844;DHT22;3967;48.702;9.326;2022-11-11T13:16:01;12.50;98.50
7844;DHT22;3967;48.702;9.326;2022-11-11T13:18:57;12.40;98.50
7844;DHT22;3967;48.702;9.326;2022-11-11T13:21:40;12.50;98.10
7844;DHT22;3967;48.702;9.326;2022-11-11T13:24:12;12.60;97.90
7844;DHT22;3967;48.702;9.326;2022-11-11T13:26:46;12.60;97.90
7844;DHT22;3967;48.702;9.326;2022-11-11T13:32:12;12.60;97.90
7844;DHT22;3967;48.702;9.326;2022-11-11T13:34:40;12.70;98.50
7844;DHT22;3967;48.702;9.326;2022-11-11T13:37:22;12.80;98.60
7844;DHT22;3967;48.702;9.326;2022-11-11T13:40:06;12.80;98.30
7844;DHT22;3967;48.702;9.326;2022-11-11T13:42:41;12.90;98.30
7844;DHT22;3967;48.702;9.326;2022-11-11T13:45:38;12.90;97.60
7844;DHT22;3967;48.702;9.326;2022-11-11T13:48:58;13.00;98.90
7844;DHT22;3967;48.702;9.326;2022-11-11T13:51:35;13.00;99.70
7844;DHT22;3967;48.702;9.326;2022-11-11T13:54:52;13.00;99.90
7844;DHT22;3967;48.702;9.326;2022-11-11T13:56:53;13.10;99.90
7844;DHT22;3967;48.702;9.326;2022-11-11T13:59:30;13.10;99.60
7844;DHT22;3967;48.702;9.326;2022-11-11T14:15:44;13.20;98.00
7844;DHT22;3967;48.702;9.326;2022-11-11T14:20:48;13.30;97.80
7844;DHT22;3967;48.702;9.326;2022-11-11T14:29:16;13.30;96.20
7844;DHT22;3967;48.702;9.326;2022-11-11T14:31:48;13.20;96.50
7844;DHT22;3967;48.702;9.326;2022-11-11T14:38:25;13.30;96.60
7844;DHT22;3967;48.702;9.326;2022-11-11T14:40:32;13.30;96.40
7844;DHT22;3967;48.702;9.326;2022-11-11T14:43:32;13.20;96.50
7844;DHT22;3967;48.702;9.326;2022-11-11T14:45:50;13.20;96.50
7844;DHT22;3967;48.702;9.326;2022-11-11T14:48:56;13.10;96.60
7844;DHT22;3967;48.702;9.326;2022-11-11T14:51:51;13.20;96.70
7844;DHT22;3967;48.702;9.326;2022-11-11T14:54:29;13.20;96.90
7844;DHT22;3967;48.702;9.326;2022-11-11T14:57:03;13.20;96.90
7844;DHT22;3967;48.702;9.326;2022-11-11T14:59:31;13.20;96.90
7844;DHT22;3967;48.702;9.326;2022-11-11T15:01:59;13.20;96.80
7844;DHT22;3967;48.702;9.326;2022-11-11T15:04:26;13.20;96.80
7844;DHT22;3967;48.702;9.326;2022-11-11T15:07:01;13.10;96.90
7844;DHT22;3967;48.702;9.326;2022-11-11T15:10:08;13.10;97.20
7844;DHT22;3967;48.702;9.326;2022-11-11T15:20:50;12.80;99.80
7844;DHT22;3967;48.702;9.326;2022-11-11T15:37:52;12.30;99.90
7844;DHT22;3967;48.702;9.326;2022-11-11T15:40:22;12.30;99.90
7844;DHT22;3967;48.702;9.326;2022-11-11T15:42:49;12.30;99.90
7844;DHT22;3967;48.702;9.326;2022-11-11T15:47:44;12.10;99.90
7844;DHT22;3967;48.702;9.326;2022-11-11T15:50:28;12.00;99.90
7844;DHT22;3967;48.702;9.326;2022-11-11T15:52:57;11.90;99.90
7844;DHT22;3967;48.702;9.326;2022-11-11T15:55:34;11.80;99.90
7844;DHT22;3967;48.702;9.326;2022-11-11T15:58:17;11.70;99.90
7844;DHT22;3967;48.702;9.326;2022-11-11T16:00:50;11.70;99.90
7844;DHT22;3967;48.702;9.326;2022-11-11T16:03:19;11.70;99.90
7844;DHT22;3967;48.702;9.326;2022-11-11T16:05:47;11.60;99.90
7844;DHT22;3967;48.702;9.326;2022-11-11T16:08:19;11.60;99.90
7844;DHT22;3967;48.702;9.326;2022-11-11T16:10:52;11.50;99.90
7844;DHT22;3967;48.702;9.326;2022-11-11T16:13:23;11.50;99.90
7844;DHT22;3967;48.702;9.326;2022-11-11T16:16:02;11.50;99.90
7844;DHT22;3967;48.702;9.326;2022-11-11T16:18:42;11.50;99.90
7844;DHT22;3967;48.702;9.326;2022-11-11T16:21:15;11.40;99.90
7844;DHT22;3967;48.702;9.326;2022-11-11T16:23:45;11.30;99.90
7844;DHT22;3967;48.702;9.326;2022-11-11T16:26:14;11.20;99.90
7844;DHT22;3967;48.702;9.326;2022-11-11T16:28:46;11.10;99.90
7844;DHT22;3967;48.702;9.326;2022-11-11T16:37:08;10.90;99.90
7844;DHT22;3967;48.702;9.326;2022-11-11T16:39:44;10.90;99.90
7844;DHT22;3967;48.702;9.326;2022-11-11T16:42:26;10.90;99.90
7844;DHT22;3967;48.702;9.326;2022-11-11T16:45:01;10.90;99.90
7844;DHT22;3967;48.702;9.326;2022-11-11T16:50:20;10.80;99.90
7844;DHT22;3967;48.702;9.326;2022-11-11T16:55:27;10.60;99.90
7844;DHT22;3967;48.702;9.326;2022-11-11T16:57:59;10.60;99.90
7844;DHT22;3967;48.702;9.326;2022-11-11T17:00:28;10.60;99.90
7844;DHT22;3967;48.702;9.326;2022-11-11T17:05:56;10.60;99.90
7844;DHT22;3967;48.702;9.326;2022-11-11T17:08:38;10.50;99.90
7844;DHT22;3967;48.702;9.326;2022-11-11T17:11:10;10.50;99.90
7844;DHT22;3967;48.702;9.326;2022-11-11T17:13:37;10.40;99.90
7844;DHT22;3967;48.702;9.326;2022-11-11T17:16:08;10.30;99.90
7844;DHT22;3967;48.702;9.326;2022-11-11T17:18:40;10.30;99.90
7844;DHT22;3967;48.702;9.326;2022-11-11T17:21:07;10.30;99.90
7844;DHT22;3967;48.702;9.326;2022-11-11T17:23:39;10.20;99.90
7844;DHT22;3967;48.702;9.326;2022-11-11T17:26:06;10.20;99.90
7844;DHT22;3967;48.702;9.326;2022-11-11T17:28:34;10.20;99.90
7844;DHT22;3967;48.702;9.326;2022-11-11T17:31:06;10.20;99.90
7844;DHT22;3967;48.702;9.326;2022-11-11T17:33:33;10.20;99.90
7844;DHT22;3967;48.702;9.326;2022-11-11T17:36:00;10.20;99.90
7844;DHT22;3967;48.702;9.326;2022-11-11T17:38:28;10.10;99.90
7844;DHT22;3967;48.702;9.326;2022-11-11T17:40:55;10.10;99.90
7844;DHT22;3967;48.702;9.326;2022-11-11T17:43:21;10.00;99.90
7844;DHT22;3967;48.702;9.326;2022-11-11T17:45:48;9.90;99.90
7844;DHT22;3967;48.702;9.326;2022-11-11T17:48:16;10.00;99.90
7844;DHT22;3967;48.702;9.326;2022-11-11T17:50:42;9.90;99.90
7844;DHT22;3967;48.702;9.326;2022-11-11T17:53:09;9.90;99.90
7844;DHT22;3967;48.702;9.326;2022-11-11T17:55:42;9.80;99.90
7844;DHT22;3967;48.702;9.326;2022-11-11T17:58:10;9.80;99.90
7844;DHT22;3967;48.702;9.326;2022-11-11T18:00:38;9.80;99.90
7844;DHT22;3967;48.702;9.326;2022-11-11T18:03:07;9.70;99.90
7844;DHT22;3967;48.702;9.326;2022-11-11T18:05:34;9.80;99.90
7844;DHT22;3967;48.702;9.326;2022-11-11T18:08:01;9.70;99.90
7844;DHT22;3967;48.702;9.326;2022-11-11T18:10:29;9.80;99.90
7844;DHT22;3967;48.702;9.326;2022-11-11T18:12:58;9.80;99.90
7844;DHT22;3967;48.702;9.326;2022-11-11T18:15:25;9.70;99.90
7844;DHT22;3967;48.702;9.326;2022-11-11T18:17:52;9.70;99.90
7844;DHT22;3967;48.702;9.326;2022-11-11T18:20:19;9.70;99.90
7844;DHT22;3967;48.702;9.326;2022-11-11T18:22:46;9.70;99.90
7844;DHT22;3967;48.702;9.326;2022-11-11T18:25:12;9.70;99.90
7844;DHT22;3967;48.702;9.326;2022-11-11T18:27:40;9.60;99.90
7844;DHT22;3967;48.702;9.326;2022-11-11T18:30:07;9.60;99.90
7844;DHT22;3967;48.702;9.326;2022-11-11T18:32:34;9.50;99.90
7844;DHT22;3967;48.702;9.326;2022-11-11T18:35:01;9.40;99.90
7844;DHT22;3967;48.702;9.326;2022-11-11T18:37:28;9.40;99.90
7844;DHT22;3967;48.702;9.326;2022-11-11T18:39:54;9.40;99.90
7844;DHT22;3967;48.702;9.326;2022-11-11T18:42:21;9.30;99.90
7844;DHT22;3967;48.702;9.326;2022-11-11T18:44:48;9.30;99.90
7844;DHT22;3967;48.702;9.326;2022-11-11T18:47:14;9.30;99.90
7844;DHT22;3967;48.702;9.326;2022-11-11T18:49:42;9.20;99.90
7844;DHT22;3967;48.702;9.326;2022-11-11T18:52:08;9.30;99.90
7844;DHT22;3967;48.702;9.326;2022-11-11T18:54:35;9.20;99.90
7844;DHT22;3967;48.702;9.326;2022-11-11T18:57:02;9.30;99.90
7844;DHT22;3967;48.702;9.326;2022-11-11T18:59:29;9.30;99.90
7844;DHT22;3967;48.702;9.326;2022-11-11T19:01:57;9.30;99.90
7844;DHT22;3967;48.702;9.326;2022-11-11T19:04:24;9.20;99.90
7844;DHT22;3967;48.702;9.326;2022-11-11T19:06:50;9.10;99.90
7844;DHT22;3967;48.702;9.326;2022-11-11T19:09:17;9.20;99.90
7844;DHT22;3967;48.702;9.326;2022-11-11T19:11:45;9.10;99.90
7844;DHT22;3967;48.702;9.326;2022-11-11T19:14:13;9.20;99.90
7844;DHT22;3967;48.702;9.326;2022-11-11T19:16:48;9.10;99.90
7844;DHT22;3967;48.702;9.326;2022-11-11T19:19:15;9.20;99.90
7844;DHT22;3967;48.702;9.326;2022-11-11T19:21:42;9.20;99.90